Wylie's Hourly Summary for Monday, April 17, 2017
Hour Temp
(f)
RH
(%)
Solar Rad.
(MJ/m2)
Rainfall
(in)
Wind
(mph)
4/17/2017 12:00 AM 72 77 0 0 1.58
4/17/2017 1:00 AM 71 77 0 0 3.89
4/17/2017 2:00 AM 71 79 0 0 4.97
4/17/2017 3:00 AM 70 82 0 0 4.58
4/17/2017 4:00 AM 69 87 0 0 3.7
4/17/2017 5:00 AM 68 97 0 0 4.32
4/17/2017 6:00 AM 68 99 0 0 5.29
4/17/2017 7:00 AM 68 99 0 0 5.5
4/17/2017 8:00 AM 67 98 0.07 0 5.57
4/17/2017 9:00 AM 68 96 0.24 0 5.77
4/17/2017 10:00 AM 68 91 0.41 0 5.2
4/17/2017 11:00 AM 69 89 0.27 0 4.55
4/17/2017 12:00 PM 67 89 0.85 0.01 9.4
4/17/2017 1:00 PM 65 89 0.62 0.05 11.04
4/17/2017 2:00 PM 68 75 0.85 0 7.38
4/17/2017 3:00 PM 67 74 0.31 0 6.51
4/17/2017 4:00 PM 64 90 0.06 0.15 3.17
4/17/2017 5:00 PM 63 100 0.07 0.26 1.26
4/17/2017 6:00 PM 63 100 0.1 0.11 2.34
4/17/2017 7:00 PM 63 89 0.04 0.04 3.34
4/17/2017 8:00 PM 64 76 0.03 0.02 6.91
4/17/2017 9:00 PM 64 86 0 0 4.69
4/17/2017 10:00 PM 63 94 0 0 4.27
4/17/2017 11:00 PM 64 100 0 0 5.44
Data Summary 66 88 3.92 0.64 5.03